Glen Carbon, Illinois
Current Conditions -  °F | °C
As of 3:50 PM on Wednesday 28 Jan 2015 (Local Time) from KALN Reporting Station
Few Clouds Few Clouds  
Wind Chill: 39°   Ceiling: Unl
Heat Index: 46°   Visibility: 10mi
Dew Point: 28°   Wind: 18mph
Humidity: 50%   Direction: 150°SSE
Pressure: 30.02"   Gusts: 24mph
Location:  38.76°N, 89.97°W
Report Text: KALN 282150Z 15016G21KT 10SM FEW200 08/M02 A3002
Loading
Personal Weather Stations






























Interactive Weather Map New forecast layout! Learn more

10-Day Weather Forecast

Advertisements
Track Severe Weather on mobile